createdAt,value
2022-12-03T00:00:29.381Z,1008.9
2022-12-03T00:01:46.403Z,1008.9
2022-12-03T00:03:03.485Z,1008.9
2022-12-03T00:04:20.893Z,1008.9
2022-12-03T00:05:39.765Z,1008.9
2022-12-03T00:06:55.373Z,1008.9
2022-12-03T00:08:12.418Z,1008.9
2022-12-03T00:09:29.387Z,1008.9
2022-12-03T00:10:46.359Z,1008.9
2022-12-03T00:12:03.843Z,1008.9
2022-12-03T00:13:20.340Z,1008.9
2022-12-03T00:14:41.375Z,1008.9
2022-12-03T00:15:54.622Z,1008.9
2022-12-03T00:17:11.426Z,1008.9
2022-12-03T00:18:28.352Z,1008.9
2022-12-03T00:19:45.363Z,1008.9
2022-12-03T00:21:02.419Z,1008.9
2022-12-03T00:22:19.405Z,1008.9
2022-12-03T00:23:41.699Z,1008.9
2022-12-03T00:24:54.652Z,1008.9
2022-12-03T00:26:11.376Z,1008.9
2022-12-03T00:27:28.380Z,1008.9
2022-12-03T00:28:45.356Z,1008.9
2022-12-03T00:30:02.515Z,1008.9
2022-12-03T00:31:19.441Z,1008.9
2022-12-03T00:32:36.392Z,1008.9
2022-12-03T00:33:53.371Z,1008.9
2022-12-03T00:35:10.400Z,1008.9
2022-12-03T00:36:27.368Z,1008.9
2022-12-03T00:37:44.386Z,1008.9
2022-12-03T00:39:01.431Z,1008.9
2022-12-03T00:40:18.420Z,1008.8
2022-12-03T00:41:35.382Z,1008.8
2022-12-03T00:42:52.362Z,1008.8
2022-12-03T00:44:09.409Z,1008.8
2022-12-03T00:45:26.394Z,1008.8
2022-12-03T00:46:43.462Z,1008.9
2022-12-03T00:48:00.432Z,1008.9
2022-12-03T00:49:17.450Z,1008.9
2022-12-03T00:50:34.415Z,1008.9
2022-12-03T00:51:51.399Z,1008.8
2022-12-03T00:53:08.385Z,1008.9
2022-12-03T00:54:30.186Z,1008.9
2022-12-03T00:55:42.521Z,1008.9
2022-12-03T00:56:59.464Z,1008.8
2022-12-03T00:58:16.404Z,1008.8
2022-12-03T00:59:33.395Z,1008.8
2022-12-03T01:00:50.661Z,1008.8
2022-12-03T01:02:07.477Z,1008.7
2022-12-03T01:03:24.414Z,1008.7
2022-12-03T01:04:41.531Z,1008.8
2022-12-03T01:05:58.408Z,1008.8
2022-12-03T01:07:15.404Z,1008.8
2022-12-03T01:08:32.469Z,1008.8
2022-12-03T01:09:49.486Z,1008.7
2022-12-03T01:11:06.404Z,1008.7
2022-12-03T01:12:23.422Z,1008.7
2022-12-03T01:13:40.577Z,1008.7
2022-12-03T01:14:57.585Z,1008.7
2022-12-03T01:16:14.749Z,1008.7
2022-12-03T01:17:31.438Z,1008.7
2022-12-03T01:18:48.662Z,1008.7
2022-12-03T01:20:05.518Z,1008.7
2022-12-03T01:21:22.498Z,1008.7
2022-12-03T01:22:39.427Z,1008.7
2022-12-03T01:23:56.420Z,1008.7
2022-12-03T01:25:13.574Z,1008.7
2022-12-03T01:26:30.436Z,1008.7
2022-12-03T01:27:47.463Z,1008.7
2022-12-03T01:29:04.444Z,1008.7
2022-12-03T01:30:21.475Z,1008.7
2022-12-03T01:31:38.490Z,1008.7
2022-12-03T01:32:55.430Z,1008.7
2022-12-03T01:34:12.494Z,1008.7
2022-12-03T01:35:29.465Z,1008.7
2022-12-03T01:36:46.436Z,1008.7
2022-12-03T01:38:03.451Z,1008.7
2022-12-03T01:39:21.527Z,1008.7
2022-12-03T01:40:38.561Z,1008.7
2022-12-03T01:41:55.454Z,1008.7
2022-12-03T01:43:12.455Z,1008.7
2022-12-03T01:44:29.477Z,1008.7
2022-12-03T01:45:46.524Z,1008.6
2022-12-03T01:47:03.953Z,1008.6
2022-12-03T01:48:20.596Z,1008.7
2022-12-03T01:49:37.596Z,1008.7
2022-12-03T01:50:54.484Z,1008.6
2022-12-03T01:52:11.462Z,1008.7
2022-12-03T01:53:28.473Z,1008.7
2022-12-03T01:54:45.478Z,1008.7
2022-12-03T01:56:02.515Z,1008.7
2022-12-03T01:57:19.489Z,1008.6
2022-12-03T01:58:36.536Z,1008.7
2022-12-03T01:59:53.463Z,1008.6
2022-12-03T02:01:10.642Z,1008.6
2022-12-03T02:02:27.476Z,1008.6
2022-12-03T02:03:44.561Z,1008.6
2022-12-03T02:05:01.576Z,1008.6
2022-12-03T02:06:18.560Z,1008.7
2022-12-03T02:07:35.600Z,1008.6
2022-12-03T02:08:52.486Z,1008.6
2022-12-03T02:10:09.559Z,1008.6
2022-12-03T02:11:26.562Z,1008.6
2022-12-03T02:12:43.536Z,1008.6
2022-12-03T02:14:00.491Z,1008.6
2022-12-03T02:15:17.523Z,1008.6
2022-12-03T02:16:34.589Z,1008.6
2022-12-03T02:17:51.498Z,1008.6
2022-12-03T02:19:08.479Z,1008.6
2022-12-03T02:20:25.524Z,1008.6
2022-12-03T02:21:42.590Z,1008.6
2022-12-03T02:22:59.498Z,1008.5
2022-12-03T02:24:16.569Z,1008.6
2022-12-03T02:25:33.497Z,1008.6
2022-12-03T02:26:50.547Z,1008.6
2022-12-03T02:28:07.572Z,1008.6
2022-12-03T02:29:24.572Z,1008.5
2022-12-03T02:30:41.833Z,1008.5
2022-12-03T02:31:58.931Z,1008.6
2022-12-03T02:33:15.537Z,1008.6
2022-12-03T02:34:32.523Z,1008.6
2022-12-03T02:35:49.580Z,1008.6
2022-12-03T02:37:06.520Z,1008.6
2022-12-03T02:38:23.562Z,1008.5
2022-12-03T02:39:40.558Z,1008.5
2022-12-03T02:40:57.561Z,1008.5
2022-12-03T02:42:14.563Z,1008.5
2022-12-03T02:43:31.532Z,1008.5
2022-12-03T02:44:48.542Z,1008.5
2022-12-03T02:46:05.542Z,1008.5
2022-12-03T02:47:22.616Z,1008.5
2022-12-03T02:48:39.828Z,1008.5
2022-12-03T02:49:56.539Z,1008.5
2022-12-03T02:51:13.565Z,1008.5
2022-12-03T02:52:30.597Z,1008.5
2022-12-03T02:53:47.561Z,1008.5
2022-12-03T02:55:04.584Z,1008.5
2022-12-03T02:56:21.688Z,1008.5
2022-12-03T02:57:38.580Z,1008.5
2022-12-03T02:58:55.550Z,1008.5
2022-12-03T03:00:12.595Z,1008.5
2022-12-03T03:01:29.693Z,1008.5
2022-12-03T03:02:46.605Z,1008.4
2022-12-03T03:04:03.544Z,1008.4
2022-12-03T03:05:20.550Z,1008.5
2022-12-03T03:06:37.576Z,1008.5
2022-12-03T03:07:54.628Z,1008.5
2022-12-03T03:09:11.543Z,1008.4
2022-12-03T03:10:28.579Z,1008.4
2022-12-03T03:11:46.660Z,1008.5
2022-12-03T03:13:03.955Z,1008.5
2022-12-03T03:14:20.604Z,1008.5
2022-12-03T03:15:37.606Z,1008.5
2022-12-03T03:16:54.618Z,1008.5
2022-12-03T03:18:11.596Z,1008.5
2022-12-03T03:19:28.564Z,1008.5
2022-12-03T03:20:45.685Z,1008.5
2022-12-03T03:22:02.621Z,1008.4
2022-12-03T03:23:19.594Z,1008.5
2022-12-03T03:24:36.586Z,1008.5
2022-12-03T03:25:53.696Z,1008.5
2022-12-03T03:27:10.640Z,1008.5
2022-12-03T03:28:27.597Z,1008.5
2022-12-03T03:29:44.584Z,1008.5
2022-12-03T03:31:01.713Z,1008.4
2022-12-03T03:32:18.618Z,1008.4
2022-12-03T03:33:35.606Z,1008.4
2022-12-03T03:34:52.861Z,1008.4
2022-12-03T03:36:09.585Z,1008.3
2022-12-03T03:37:26.743Z,1008.3
2022-12-03T03:38:43.598Z,1008.3
2022-12-03T03:40:00.608Z,1008.3
2022-12-03T03:41:17.811Z,1008.3
2022-12-03T03:42:35.044Z,1008.3
2022-12-03T03:43:51.586Z,1008.3
2022-12-03T03:45:08.606Z,1008.3
2022-12-03T03:46:25.727Z,1008.2
2022-12-03T03:47:42.658Z,1008.2
2022-12-03T03:48:59.602Z,1008.2
2022-12-03T03:50:16.678Z,1008.2
2022-12-03T03:51:33.618Z,1008.2
2022-12-03T03:52:50.710Z,1008.2
2022-12-03T03:54:07.617Z,1008.2
2022-12-03T03:55:24.629Z,1008.1
2022-12-03T03:56:41.622Z,1008.1
2022-12-03T03:57:58.656Z,1008.1
2022-12-03T03:59:15.614Z,1008.1
2022-12-03T04:00:32.629Z,1008.2
2022-12-03T04:01:49.629Z,1008.2
2022-12-03T04:03:06.729Z,1008.2
2022-12-03T04:04:23.819Z,1008.2
2022-12-03T04:05:40.731Z,1008.2
2022-12-03T04:06:57.623Z,1008.1
2022-12-03T04:08:14.772Z,1008.1
2022-12-03T04:09:31.685Z,1008.1
2022-12-03T04:10:48.689Z,1008.1
2022-12-03T04:12:05.647Z,1008.1
2022-12-03T04:13:23.031Z,1008
2022-12-03T04:14:40.704Z,1008
2022-12-03T04:15:57.661Z,1008
2022-12-03T04:17:14.629Z,1008
2022-12-03T04:18:31.666Z,1008
2022-12-03T04:19:48.656Z,1008
2022-12-03T04:21:05.652Z,1008
2022-12-03T04:22:22.655Z,1008
2022-12-03T04:23:39.694Z,1008
2022-12-03T04:24:56.647Z,1008
2022-12-03T04:26:13.653Z,1008
2022-12-03T04:27:30.693Z,1008
2022-12-03T04:28:47.715Z,1008
2022-12-03T04:30:04.781Z,1008
2022-12-03T04:31:21.694Z,1008
2022-12-03T04:32:38.654Z,1008
2022-12-03T04:33:55.680Z,1008
2022-12-03T04:35:12.732Z,1008
2022-12-03T04:36:29.672Z,1008
2022-12-03T04:37:46.734Z,1008
2022-12-03T04:39:03.696Z,1008
2022-12-03T04:40:20.680Z,1008
2022-12-03T04:41:38.034Z,1008.1
2022-12-03T04:42:54.732Z,1008.1
2022-12-03T04:44:11.746Z,1008.1
2022-12-03T04:45:28.679Z,1008
2022-12-03T04:46:45.681Z,1008
2022-12-03T04:48:02.697Z,1008
2022-12-03T04:49:19.834Z,1008
2022-12-03T04:50:36.677Z,1008.1
2022-12-03T04:51:53.689Z,1008.1
2022-12-03T04:53:10.695Z,1008.1
2022-12-03T04:54:27.781Z,1008.1
2022-12-03T04:55:44.703Z,1008.1
2022-12-03T04:57:01.689Z,1008.1
2022-12-03T04:58:18.697Z,1008.1
2022-12-03T04:59:35.762Z,1008.1
2022-12-03T05:00:52.745Z,1008.1
2022-12-03T05:02:09.778Z,1008.1
2022-12-03T05:03:26.697Z,1008.1
2022-12-03T05:04:43.729Z,1008.1
2022-12-03T05:06:00.791Z,1008
2022-12-03T05:07:17.696Z,1008
2022-12-03T05:08:34.709Z,1008
2022-12-03T05:09:51.754Z,1008
2022-12-03T05:11:08.718Z,1008
2022-12-03T05:12:25.712Z,1008.1
2022-12-03T05:13:43.247Z,1008.1
2022-12-03T05:14:59.950Z,1008
2022-12-03T05:16:16.774Z,1008
2022-12-03T05:17:33.709Z,1008
2022-12-03T05:18:50.734Z,1008
2022-12-03T05:20:07.872Z,1008
2022-12-03T05:21:24.724Z,1008
2022-12-03T05:22:41.731Z,1008
2022-12-03T05:23:58.780Z,1008
2022-12-03T05:25:15.784Z,1008
2022-12-03T05:26:32.726Z,1008
2022-12-03T05:27:49.739Z,1008
2022-12-03T05:29:06.728Z,1008
2022-12-03T05:30:23.856Z,1008
2022-12-03T05:31:40.767Z,1008
2022-12-03T05:32:57.739Z,1008
2022-12-03T05:34:14.739Z,1008
2022-12-03T05:35:31.784Z,1008
2022-12-03T05:36:48.759Z,1008
2022-12-03T05:38:05.773Z,1008
2022-12-03T05:39:22.781Z,1008
2022-12-03T05:40:39.815Z,1008
2022-12-03T05:41:56.787Z,1008
2022-12-03T05:43:13.969Z,1008
2022-12-03T05:44:30.748Z,1008
2022-12-03T05:45:47.827Z,1008
2022-12-03T05:47:04.808Z,1008
2022-12-03T05:48:21.772Z,1008
2022-12-03T05:49:38.794Z,1008
2022-12-03T05:50:55.753Z,1008
2022-12-03T05:52:12.767Z,1008
2022-12-03T05:53:29.771Z,1007.9
2022-12-03T05:54:46.794Z,1007.9
2022-12-03T05:56:03.815Z,1008
2022-12-03T05:57:20.758Z,1008
2022-12-03T05:58:37.799Z,1008
2022-12-03T05:59:54.824Z,1008
2022-12-03T06:01:11.787Z,1008
2022-12-03T06:02:28.930Z,1008
2022-12-03T06:03:45.917Z,1008
2022-12-03T06:05:02.808Z,1008
2022-12-03T06:06:19.781Z,1008
2022-12-03T06:07:36.832Z,1008
2022-12-03T06:08:53.789Z,1008
2022-12-03T06:10:10.831Z,1008
2022-12-03T06:11:27.808Z,1008
2022-12-03T06:12:44.778Z,1008
2022-12-03T06:14:01.828Z,1008
2022-12-03T06:15:18.837Z,1008
2022-12-03T06:16:35.897Z,1008.1
2022-12-03T06:17:52.810Z,1008.1
2022-12-03T06:19:09.802Z,1008.1
2022-12-03T06:20:27.079Z,1008.1
2022-12-03T06:21:43.826Z,1008.1
2022-12-03T06:23:00.801Z,1008.1
2022-12-03T06:24:17.811Z,1008.1
2022-12-03T06:25:34.802Z,1008.1
2022-12-03T06:26:51.900Z,1008.1
2022-12-03T06:28:08.841Z,1008.1
2022-12-03T06:29:26.454Z,1008.1
2022-12-03T06:30:43.927Z,1008.1
2022-12-03T06:32:00.847Z,1008.1
2022-12-03T06:33:17.814Z,1008.1
2022-12-03T06:34:34.819Z,1008.1
2022-12-03T06:35:51.816Z,1008.1
2022-12-03T06:37:08.899Z,1008.1
2022-12-03T06:38:25.831Z,1008.1
2022-12-03T06:39:42.814Z,1008.1
2022-12-03T06:40:59.811Z,1008.1
2022-12-03T06:42:16.883Z,1008.1
2022-12-03T06:43:33.811Z,1008.1
2022-12-03T06:44:51.227Z,1008.1
2022-12-03T06:46:07.932Z,1008.1
2022-12-03T06:47:25.322Z,1008
2022-12-03T06:48:41.933Z,1008.1
2022-12-03T06:49:58.837Z,1008.1
2022-12-03T06:51:15.883Z,1008.1
2022-12-03T06:52:32.909Z,1008.1
2022-12-03T06:53:49.867Z,1008
2022-12-03T06:55:06.861Z,1008
2022-12-03T06:56:23.838Z,1008
2022-12-03T06:57:40.898Z,1008
2022-12-03T06:58:57.877Z,1008
2022-12-03T07:00:14.843Z,1008
2022-12-03T07:01:32.099Z,1008
2022-12-03T07:02:48.968Z,1008
2022-12-03T07:04:05.894Z,1008
2022-12-03T07:05:22.935Z,1008
2022-12-03T07:06:39.873Z,1008
2022-12-03T07:07:56.907Z,1008
2022-12-03T07:09:13.858Z,1008
2022-12-03T07:10:30.903Z,1008
2022-12-03T07:11:47.884Z,1008
2022-12-03T07:13:04.898Z,1008
2022-12-03T07:14:21.880Z,1008
2022-12-03T07:15:38.892Z,1008
2022-12-03T07:16:55.870Z,1008
2022-12-03T07:18:12.860Z,1008
2022-12-03T07:19:32.686Z,1008
2022-12-03T07:20:46.862Z,1008
2022-12-03T07:22:03.904Z,1008
2022-12-03T07:23:20.870Z,1007.8
2022-12-03T07:24:37.886Z,1007.9
2022-12-03T07:25:54.922Z,1007.9
2022-12-03T07:27:12.163Z,1007.9
2022-12-03T07:28:28.919Z,1007.9
2022-12-03T07:29:45.876Z,1007.9
2022-12-03T07:31:02.971Z,1007.8
2022-12-03T07:32:19.918Z,1007.9
2022-12-03T07:33:36.911Z,1007.8
2022-12-03T07:34:54.137Z,1007.8
2022-12-03T07:36:11.082Z,1007.9
2022-12-03T07:37:27.917Z,1007.9
2022-12-03T07:38:44.935Z,1007.9
2022-12-03T07:40:02.178Z,1007.9
2022-12-03T07:41:18.886Z,1007.9
2022-12-03T07:42:35.894Z,1007.9
2022-12-03T07:43:52.971Z,1007.9
2022-12-03T07:45:10.088Z,1007.9
2022-12-03T07:46:26.999Z,1007.9
2022-12-03T07:47:43.918Z,1008
2022-12-03T07:49:00.931Z,1008
2022-12-03T07:50:17.917Z,1007.9
2022-12-03T07:51:36.144Z,1007.9
2022-12-03T07:52:52.941Z,1007.9
2022-12-03T07:54:09.979Z,1007.9
2022-12-03T07:55:26.908Z,1007.9
2022-12-03T07:56:43.920Z,1007.9
2022-12-03T07:58:00.913Z,1007.9
2022-12-03T07:59:18.114Z,1007.9
2022-12-03T08:00:34.981Z,1007.9
2022-12-03T08:01:52.054Z,1007.9
2022-12-03T08:03:08.973Z,1007.9
2022-12-03T08:04:26.012Z,1007.9
2022-12-03T08:05:42.969Z,1007.9
2022-12-03T08:06:59.936Z,1007.9
2022-12-03T08:08:17.008Z,1007.9
2022-12-03T08:09:33.962Z,1007.9
2022-12-03T08:10:50.911Z,1007.9
2022-12-03T08:12:07.935Z,1007.9
2022-12-03T08:13:24.941Z,1007.9
2022-12-03T08:14:41.990Z,1007.9
2022-12-03T08:15:59.009Z,1007.9
2022-12-03T08:17:15.933Z,1007.9
2022-12-03T08:18:32.994Z,1007.8
2022-12-03T08:19:49.932Z,1007.8
2022-12-03T08:21:06.958Z,1007.9
2022-12-03T08:22:23.989Z,1007.8
2022-12-03T08:23:41.012Z,1007.9
2022-12-03T08:24:57.989Z,1007.8
2022-12-03T08:26:14.952Z,1007.8
2022-12-03T08:27:31.949Z,1007.8
2022-12-03T08:28:49.002Z,1007.8
2022-12-03T08:30:06.084Z,1007.8
2022-12-03T08:31:24.767Z,1007.8
2022-12-03T08:32:40.080Z,1007.8
2022-12-03T08:33:56.962Z,1007.8
2022-12-03T08:35:13.980Z,1007.8
2022-12-03T08:36:30.968Z,1007.8
2022-12-03T08:37:48.023Z,1007.8
2022-12-03T08:39:04.999Z,1007.8
2022-12-03T08:40:21.962Z,1007.8
2022-12-03T08:41:39.038Z,1007.8
2022-12-03T08:42:55.982Z,1007.7
2022-12-03T08:44:13.275Z,1007.7
2022-12-03T08:45:30.047Z,1007.7
2022-12-03T08:46:46.967Z,1007.7
2022-12-03T08:48:03.979Z,1007.7
2022-12-03T08:49:21.044Z,1007.6
2022-12-03T08:50:37.972Z,1007.6
2022-12-03T08:51:54.996Z,1007.6
2022-12-03T08:53:11.986Z,1007.6
2022-12-03T08:54:29.008Z,1007.6
2022-12-03T08:55:45.997Z,1007.5
2022-12-03T08:57:02.981Z,1007.5
2022-12-03T08:58:20.021Z,1007.5
2022-12-03T08:59:38.584Z,1007.5
2022-12-03T09:00:54.086Z,1007.6
2022-12-03T09:02:11.033Z,1007.6
2022-12-03T09:03:28.095Z,1007.6
2022-12-03T09:04:45.019Z,1007.6
2022-12-03T09:06:02.062Z,1007.7
2022-12-03T09:07:19.022Z,1007.6
2022-12-03T09:08:36.043Z,1007.7
2022-12-03T09:09:53.046Z,1007.7
2022-12-03T09:11:10.690Z,1007.7
2022-12-03T09:12:28.074Z,1007.7
2022-12-03T09:13:44.996Z,1007.7
2022-12-03T09:15:02.551Z,1007.7
2022-12-03T09:16:19.180Z,1007.7
2022-12-03T09:17:36.056Z,1007.6
2022-12-03T09:18:53.174Z,1007.6
2022-12-03T09:20:10.010Z,1007.6
2022-12-03T09:21:27.021Z,1007.6
2022-12-03T09:22:44.088Z,1007.5
2022-12-03T09:24:01.113Z,1007.5
2022-12-03T09:25:18.029Z,1007.5
2022-12-03T09:26:35.086Z,1007.5
2022-12-03T09:27:52.195Z,1007.5
2022-12-03T09:29:12.272Z,1007.5
2022-12-03T09:30:26.034Z,1007.5
2022-12-03T09:31:43.556Z,1007.6
2022-12-03T09:33:00.113Z,1007.5
2022-12-03T09:34:17.026Z,1007.5
2022-12-03T09:35:34.076Z,1007.5
2022-12-03T09:36:51.068Z,1007.5
2022-12-03T09:38:08.035Z,1007.5
2022-12-03T09:39:25.082Z,1007.5
2022-12-03T09:40:42.124Z,1007.5
2022-12-03T09:41:59.042Z,1007.5
2022-12-03T09:43:16.050Z,1007.5
2022-12-03T09:44:33.039Z,1007.5
2022-12-03T09:45:50.947Z,1007.5
2022-12-03T09:47:08.355Z,1007.5
2022-12-03T09:48:25.086Z,1007.5
2022-12-03T09:49:42.041Z,1007.5
2022-12-03T09:50:59.173Z,1007.5
2022-12-03T09:52:16.079Z,1007.5
2022-12-03T09:53:36.744Z,1007.4
2022-12-03T09:54:50.094Z,1007.5
2022-12-03T09:56:07.090Z,1007.5
2022-12-03T09:57:24.056Z,1007.4
2022-12-03T09:58:41.099Z,1007.5
2022-12-03T09:59:58.078Z,1007.5
2022-12-03T10:01:15.347Z,1007.5
2022-12-03T10:02:32.377Z,1007.4
2022-12-03T10:03:49.070Z,1007.4
2022-12-03T10:05:06.186Z,1007.5
2022-12-03T10:06:23.114Z,1007.5
2022-12-03T10:07:40.197Z,1007.5
2022-12-03T10:08:57.082Z,1007.5
2022-12-03T10:10:14.069Z,1007.5
2022-12-03T10:11:31.097Z,1007.6
2022-12-03T10:12:48.223Z,1007.6
2022-12-03T10:16:27.821Z,1007.6
2022-12-03T10:17:45.124Z,1007.6
2022-12-03T10:19:02.283Z,1007.6
2022-12-03T10:20:19.142Z,1007.6
2022-12-03T10:21:36.086Z,1007.6
2022-12-03T10:22:53.150Z,1007.6
2022-12-03T10:24:10.324Z,1007.6
2022-12-03T10:25:27.120Z,1007.5
2022-12-03T10:26:44.439Z,1007.5
2022-12-03T10:31:45.148Z,1007.6
2022-12-03T10:33:02.332Z,1007.6
2022-12-03T10:34:19.099Z,1007.5
2022-12-03T10:35:36.102Z,1007.5
2022-12-03T10:36:53.141Z,1007.5
2022-12-03T10:38:10.133Z,1007.4
2022-12-03T10:39:27.160Z,1007.5
2022-12-03T10:40:44.188Z,1007.4
2022-12-03T10:42:01.154Z,1007.4
2022-12-03T10:43:18.144Z,1007.4
2022-12-03T10:44:35.157Z,1007.5
2022-12-03T10:45:52.206Z,1007.4
2022-12-03T10:47:09.266Z,1007.5
2022-12-03T10:48:26.358Z,1007.5
2022-12-03T10:49:43.124Z,1007.4
2022-12-03T10:51:00.148Z,1007.4
2022-12-03T10:52:21.278Z,1007.4
2022-12-03T10:53:34.168Z,1007.4
2022-12-03T10:54:51.720Z,1007.3
2022-12-03T10:56:08.179Z,1007.3
2022-12-03T10:57:25.155Z,1007.3
2022-12-03T10:58:42.143Z,1007.3
2022-12-03T10:59:59.170Z,1007.2
2022-12-03T11:01:16.355Z,1007.2
2022-12-03T11:02:33.155Z,1007.2
2022-12-03T11:03:50.287Z,1007.2
2022-12-03T11:05:07.183Z,1007.1
2022-12-03T11:06:24.134Z,1007.2
2022-12-03T11:07:41.247Z,1007.1
2022-12-03T11:09:01.490Z,1007.1
2022-12-03T11:10:15.262Z,1007.1
2022-12-03T11:11:32.184Z,1007.1
2022-12-03T11:12:49.191Z,1007.1
2022-12-03T11:14:06.181Z,1007.1
2022-12-03T11:19:18.236Z,1007.1
2022-12-03T11:20:35.162Z,1007.1
2022-12-03T11:21:52.184Z,1007.1
2022-12-03T11:23:09.161Z,1007.1
2022-12-03T11:24:26.225Z,1007.1
2022-12-03T11:25:43.169Z,1007.1
2022-12-03T11:27:00.223Z,1007.1
2022-12-03T11:28:17.189Z,1007.1
2022-12-03T11:29:34.194Z,1007.1
2022-12-03T11:30:51.338Z,1007
2022-12-03T11:32:08.190Z,1007
2022-12-03T11:33:25.242Z,1007
2022-12-03T11:34:42.209Z,1006.9
2022-12-03T11:35:59.431Z,1006.9
2022-12-03T11:37:16.211Z,1006.9
2022-12-03T11:38:33.247Z,1006.9
2022-12-03T11:39:50.335Z,1006.9
2022-12-03T11:41:07.188Z,1006.9
2022-12-03T11:42:24.180Z,1006.8
2022-12-03T11:43:41.388Z,1006.9
2022-12-03T11:44:58.252Z,1006.9
2022-12-03T11:46:15.418Z,1006.9
2022-12-03T11:47:32.211Z,1006.9
2022-12-03T11:48:49.250Z,1006.8
2022-12-03T11:50:06.272Z,1006.9
2022-12-03T11:51:23.214Z,1006.9
2022-12-03T11:52:40.199Z,1007
2022-12-03T11:53:57.204Z,1007
2022-12-03T11:55:14.259Z,1006.9
2022-12-03T11:56:31.248Z,1006.9
2022-12-03T11:57:48.294Z,1006.8
2022-12-03T11:59:05.577Z,1006.8
2022-12-03T12:00:22.268Z,1006.8
2022-12-03T12:01:39.394Z,1006.8
2022-12-03T12:02:56.286Z,1006.8
2022-12-03T12:04:13.436Z,1006.8
2022-12-03T12:05:30.328Z,1006.8
2022-12-03T12:06:51.724Z,1006.8
2022-12-03T12:08:04.267Z,1006.8
2022-12-03T12:09:21.243Z,1006.8
2022-12-03T12:10:38.218Z,1006.8
2022-12-03T12:11:55.229Z,1006.8
2022-12-03T12:13:12.241Z,1006.8
2022-12-03T12:14:29.269Z,1006.8
2022-12-03T12:15:46.378Z,1006.8
2022-12-03T12:17:03.275Z,1006.8
2022-12-03T12:18:20.264Z,1006.8
2022-12-03T12:19:37.305Z,1006.9
2022-12-03T12:20:54.287Z,1006.8
2022-12-03T12:22:11.291Z,1006.7
2022-12-03T12:23:28.257Z,1006.7
2022-12-03T12:24:45.640Z,1006.8
2022-12-03T12:26:02.301Z,1006.8
2022-12-03T12:27:19.237Z,1006.8
2022-12-03T12:28:36.244Z,1006.8
2022-12-03T12:29:53.659Z,1006.8
2022-12-03T12:31:10.338Z,1006.8
2022-12-03T12:32:27.253Z,1006.8
2022-12-03T12:33:44.251Z,1006.8
2022-12-03T12:35:01.309Z,1006.8
2022-12-03T12:36:18.337Z,1006.7
2022-12-03T12:37:35.269Z,1006.7
2022-12-03T12:38:52.284Z,1006.7
2022-12-03T12:40:09.965Z,1006.7
2022-12-03T12:41:27.308Z,1006.6
2022-12-03T12:42:44.287Z,1006.6
2022-12-03T12:44:01.271Z,1006.6
2022-12-03T12:45:18.321Z,1006.6
2022-12-03T12:46:50.674Z,1006.6
2022-12-03T12:47:52.370Z,1006.6
2022-12-03T12:49:09.646Z,1006.6
2022-12-03T12:50:26.277Z,1006.6
2022-12-03T12:51:43.325Z,1006.6
2022-12-03T12:53:00.305Z,1006.6
2022-12-03T12:54:17.275Z,1006.7
2022-12-03T12:55:34.275Z,1006.7
2022-12-03T12:56:51.314Z,1006.7
2022-12-03T12:58:08.284Z,1006.7
2022-12-03T12:59:25.287Z,1006.7
2022-12-03T13:00:42.351Z,1006.7
2022-12-03T13:01:59.353Z,1006.7
2022-12-03T13:03:16.375Z,1006.7
2022-12-03T13:04:33.284Z,1006.8
2022-12-03T13:05:50.371Z,1006.8
2022-12-03T13:07:07.348Z,1006.7
2022-12-03T13:08:24.447Z,1006.7
2022-12-03T13:09:41.299Z,1006.8
2022-12-03T13:10:58.336Z,1006.8
2022-12-03T13:12:15.320Z,1006.8
2022-12-03T13:13:32.527Z,1006.8
2022-12-03T13:14:49.409Z,1006.7
2022-12-03T13:16:06.499Z,1006.8
2022-12-03T13:17:23.407Z,1006.8
2022-12-03T13:22:47.255Z,1006.8
2022-12-03T13:24:04.334Z,1006.7
2022-12-03T13:25:38.210Z,1006.8
2022-12-03T13:26:39.396Z,1006.8
2022-12-03T13:27:55.329Z,1006.8
2022-12-03T13:29:12.321Z,1006.7
2022-12-03T13:30:29.543Z,1006.7
2022-12-03T13:31:46.560Z,1006.7
2022-12-03T13:33:03.500Z,1006.5
2022-12-03T13:34:20.381Z,1006.6
2022-12-03T13:35:37.395Z,1006.5
2022-12-03T13:36:57.885Z,1006.5
2022-12-03T13:38:11.400Z,1006.5
2022-12-03T13:39:28.352Z,1006.6
2022-12-03T13:40:45.367Z,1006.6
2022-12-03T13:42:02.447Z,1006.6
2022-12-03T13:43:19.352Z,1006.6
2022-12-03T13:44:36.339Z,1006.7
2022-12-03T13:45:53.413Z,1006.7
2022-12-03T13:47:10.385Z,1006.8
2022-12-03T13:48:27.370Z,1006.7
2022-12-03T13:49:44.366Z,1006.7
2022-12-03T13:51:01.347Z,1006.7
2022-12-03T13:52:18.358Z,1006.7
2022-12-03T13:53:35.413Z,1006.7
2022-12-03T13:54:52.355Z,1006.7
2022-12-03T13:56:09.372Z,1006.6
2022-12-03T13:57:26.358Z,1006.6
2022-12-03T13:58:43.390Z,1006.7
2022-12-03T14:00:00.361Z,1006.6
2022-12-03T14:01:17.575Z,1006.6
2022-12-03T14:02:34.428Z,1006.7
2022-12-03T14:03:51.500Z,1006.7
2022-12-03T14:05:08.364Z,1006.6
2022-12-03T14:06:25.361Z,1006.6
2022-12-03T14:07:42.423Z,1006.7
2022-12-03T14:08:59.425Z,1006.6
2022-12-03T14:10:16.918Z,1006.6
2022-12-03T14:11:33.393Z,1006.6
2022-12-03T14:12:51.027Z,1006.6
2022-12-03T14:14:08.418Z,1006.6
2022-12-03T14:15:25.403Z,1006.6
2022-12-03T14:16:42.437Z,1006.6
2022-12-03T14:17:59.423Z,1006.6
2022-12-03T14:19:16.407Z,1006.6
2022-12-03T14:20:33.406Z,1006.6
2022-12-03T14:21:50.474Z,1006.6
2022-12-03T14:23:07.384Z,1006.6
2022-12-03T14:24:24.439Z,1006.7
2022-12-03T14:25:41.409Z,1006.6
2022-12-03T14:26:58.426Z,1006.7
2022-12-03T14:28:15.478Z,1006.6
2022-12-03T14:29:32.388Z,1006.6
2022-12-03T14:30:49.487Z,1006.6
2022-12-03T14:32:06.478Z,1006.6
2022-12-03T14:33:23.503Z,1006.6
2022-12-03T14:34:40.435Z,1006.6
2022-12-03T14:35:57.439Z,1006.6
2022-12-03T14:37:14.444Z,1006.6
2022-12-03T14:38:31.548Z,1006.6
2022-12-03T14:39:48.495Z,1006.6
2022-12-03T14:41:05.430Z,1006.6
2022-12-03T14:42:23.076Z,1006.6
2022-12-03T14:43:40.475Z,1006.6
2022-12-03T14:47:12.507Z,1006.6
2022-12-03T14:48:29.830Z,1006.6
2022-12-03T14:49:46.450Z,1006.6
2022-12-03T14:51:03.437Z,1006.6
2022-12-03T14:52:20.467Z,1006.6
2022-12-03T14:53:38.518Z,1006.6
2022-12-03T14:54:55.500Z,1006.5
2022-12-03T14:56:12.438Z,1006.5
2022-12-03T14:57:29.465Z,1006.5
2022-12-03T14:58:46.518Z,1006.5
2022-12-03T15:00:03.574Z,1006.5
2022-12-03T15:01:20.514Z,1006.5
2022-12-03T15:02:37.493Z,1006.5
2022-12-03T15:03:54.476Z,1006.6
2022-12-03T15:05:11.461Z,1006.6
2022-12-03T15:06:28.476Z,1006.5
2022-12-03T15:07:45.489Z,1006.5
2022-12-03T15:09:02.510Z,1006.6
2022-12-03T15:10:19.841Z,1006.6
2022-12-03T15:11:40.212Z,1006.6
2022-12-03T15:12:54.487Z,1006.6
2022-12-03T15:14:11.474Z,1006.6
2022-12-03T15:15:28.486Z,1006.6
2022-12-03T15:16:45.516Z,1006.6
2022-12-03T15:18:02.555Z,1006.7
2022-12-03T15:19:19.489Z,1006.6
2022-12-03T15:20:36.505Z,1006.6
2022-12-03T15:21:53.450Z,1006.6
2022-12-03T15:23:14.185Z,1006.7
2022-12-03T15:24:27.536Z,1006.7
2022-12-03T15:25:44.493Z,1006.7
2022-12-03T15:27:01.506Z,1006.7
2022-12-03T15:28:18.501Z,1006.7
2022-12-03T15:29:35.497Z,1006.7
2022-12-03T15:30:52.595Z,1006.7
2022-12-03T15:32:10.205Z,1006.7
2022-12-03T15:33:27.601Z,1006.7
2022-12-03T15:34:44.563Z,1006.7
2022-12-03T15:36:01.477Z,1006.7
2022-12-03T15:37:18.476Z,1006.7
2022-12-03T15:38:35.496Z,1006.7
2022-12-03T15:39:52.548Z,1006.7
2022-12-03T15:41:09.578Z,1006.7
2022-12-03T15:42:27.291Z,1006.7
2022-12-03T15:43:44.489Z,1006.7
2022-12-03T15:45:01.532Z,1006.7
2022-12-03T15:46:18.595Z,1006.6
2022-12-03T15:47:35.935Z,1006.6
2022-12-03T15:48:52.669Z,1006.6
2022-12-03T15:50:10.632Z,1006.7
2022-12-03T15:51:27.565Z,1006.6
2022-12-03T15:52:44.506Z,1006.6
2022-12-03T15:54:01.545Z,1006.6
2022-12-03T15:55:18.564Z,1006.6
2022-12-03T15:56:35.774Z,1006.6
2022-12-03T15:57:52.527Z,1006.7
2022-12-03T15:59:09.652Z,1006.6
2022-12-03T16:00:26.574Z,1006.6
2022-12-03T16:04:02.414Z,1006.7
2022-12-03T16:05:19.588Z,1006.7
2022-12-03T16:06:36.540Z,1006.6
2022-12-03T16:07:53.923Z,1006.7
2022-12-03T16:09:10.580Z,1006.6
2022-12-03T16:10:28.273Z,1006.6
2022-12-03T16:11:45.563Z,1006.6
2022-12-03T16:13:02.572Z,1006.6
2022-12-03T16:14:19.537Z,1006.6
2022-12-03T16:15:36.660Z,1006.6
2022-12-03T16:16:53.539Z,1006.6
2022-12-03T16:18:10.548Z,1006.7
2022-12-03T16:19:27.531Z,1006.6
2022-12-03T16:20:44.578Z,1006.6
2022-12-03T16:22:01.575Z,1006.6
2022-12-03T16:23:18.551Z,1006.6
2022-12-03T16:24:35.819Z,1006.6
2022-12-03T16:25:52.571Z,1006.6
2022-12-03T16:27:09.613Z,1006.6
2022-12-03T16:28:26.553Z,1006.6